Winterhaven, CA (92283)

10:14 PM PDT on September 04, 2015 (GMT -0700)
RAWS | | Change Station
CLOSE
Current Station
Personal Weather Station
Location: Winterhaven, CA
Elevation: 285 ft
Nearby Weather Stations

Elev 285 ft 32.91 °N, 114.47 °W | Updated 47 minutes ago

Clear
Clear
87.0 °F
Feels Like 90 °F
N
13.0
Wind Variable Wind from South
Gusts 24.0 mph

Today
High -- | Low -- °F
--% Chance of Precip.
Yesterday
High -- | Low -- °F
Precip. -- in
6:14 AM 6:59 PM
Waning Gibbous, 52% visible
Pressure 29.73 in
Visibility 10.0 miles
Clouds Clear
Heat Index 90 °F
Dew Point 67.0 °F
Humidity 52%
Rainfall in
Snow Depth Not available.
UV 0 out of 12
Pollen 7.50 out of 12
Air Quality Not available.
Flu Activity Not available.
METAR KNYL 050457Z AUTO 16017KT 10SM CLR 31/21 A2974 RMK AO2 SLP065 T03060206
Pressure 29.73 in
Visibility 10.0 miles
Clouds Clear
Heat Index 90 °F
Dew Point 67.0 °F
Humidity 52%
Rainfall in
Snow Depth Not available.
UV 0 out of 12
Pollen 7.50 out of 12
Air Quality Not available.
Flu Activity Not available.
METAR KNYL 050457Z AUTO 16017KT 10SM CLR 31/21 A2974 RMK AO2 SLP065 T03060206

10-Day Weather Forecast

×

Almanac

Astronomy

Sep. 04, 2015 Rise Set
Actual Time
Civil Twilight
Nautical Twilight
Astronomical Twilight
Moon
Length of Visible Light
Length of Day
Tomorrow will be .
, % of the Moon is Illuminated

Today's Extremes

State Highs State Lows

Community

WunderPhotos

Upload Photos

1,852,426 photos uploaded!

WunderBlogs® & News

Nearby

Air Quality

  Air Quality AQ Index Pollutant
Not available.

Snow Depth

Station Depth Elevation

Earthquake Activity

City Distance Mag. Time & Date
Minimum magnitude displayed is 2.5.

Coastal Water Temperatures

Place Temperature

Stations

Nearby Weather Stations

Station Location Temp. Windchill Dew Point Humidity Wind Precip. Elev Updated Type